sensor_id;sensor_type;location;lat;lon;timestamp;P1;durP1;ratioP1;P2;durP2;ratioP2
12925;SDS011;6529;50.566;9.774;2022-12-17T00:01:32;11.50;;;7.03;;
12925;SDS011;6529;50.566;9.774;2022-12-17T00:04:16;10.40;;;5.73;;
12925;SDS011;6529;50.566;9.774;2022-12-17T00:07:00;11.90;;;5.50;;
12925;SDS011;6529;50.566;9.774;2022-12-17T00:09:44;11.20;;;6.33;;
12925;SDS011;6529;50.566;9.774;2022-12-17T00:12:28;7.07;;;4.50;;
12925;SDS011;6529;50.566;9.774;2022-12-17T00:15:12;9.10;;;4.43;;
12925;SDS011;6529;50.566;9.774;2022-12-17T00:18:03;7.20;;;4.67;;
12925;SDS011;6529;50.566;9.774;2022-12-17T00:20:52;9.17;;;5.17;;
12925;SDS011;6529;50.566;9.774;2022-12-17T00:23:38;6.90;;;4.13;;
12925;SDS011;6529;50.566;9.774;2022-12-17T00:26:22;6.80;;;4.50;;
12925;SDS011;6529;50.566;9.774;2022-12-17T00:29:06;11.30;;;4.63;;
12925;SDS011;6529;50.566;9.774;2022-12-17T00:31:50;12.70;;;7.50;;
12925;SDS011;6529;50.566;9.774;2022-12-17T00:34:34;13.80;;;8.03;;
12925;SDS011;6529;50.566;9.774;2022-12-17T00:37:18;16.80;;;8.30;;
12925;SDS011;6529;50.566;9.774;2022-12-17T00:40:02;14.70;;;7.53;;
12925;SDS011;6529;50.566;9.774;2022-12-17T00:42:46;14.17;;;8.07;;
12925;SDS011;6529;50.566;9.774;2022-12-17T00:45:30;9.30;;;5.80;;
12925;SDS011;6529;50.566;9.774;2022-12-17T00:48:14;13.10;;;6.97;;
12925;SDS011;6529;50.566;9.774;2022-12-17T00:50:58;8.17;;;5.10;;
12925;SDS011;6529;50.566;9.774;2022-12-17T00:53:42;7.90;;;4.50;;
12925;SDS011;6529;50.566;9.774;2022-12-17T00:56:26;10.33;;;5.33;;
12925;SDS011;6529;50.566;9.774;2022-12-17T00:59:10;10.40;;;5.90;;
12925;SDS011;6529;50.566;9.774;2022-12-17T01:01:55;11.27;;;5.90;;
12925;SDS011;6529;50.566;9.774;2022-12-17T01:04:38;10.33;;;5.80;;
12925;SDS011;6529;50.566;9.774;2022-12-17T01:07:23;11.03;;;6.00;;
12925;SDS011;6529;50.566;9.774;2022-12-17T01:10:07;11.70;;;5.30;;
12925;SDS011;6529;50.566;9.774;2022-12-17T01:12:51;7.53;;;4.53;;
12925;SDS011;6529;50.566;9.774;2022-12-17T01:15:35;7.17;;;3.83;;
12925;SDS011;6529;50.566;9.774;2022-12-17T01:18:19;9.17;;;4.47;;
12925;SDS011;6529;50.566;9.774;2022-12-17T01:21:03;9.53;;;4.87;;
12925;SDS011;6529;50.566;9.774;2022-12-17T01:23:47;8.07;;;4.43;;
12925;SDS011;6529;50.566;9.774;2022-12-17T01:26:31;9.53;;;4.97;;
12925;SDS011;6529;50.566;9.774;2022-12-17T01:29:15;7.80;;;4.50;;
12925;SDS011;6529;50.566;9.774;2022-12-17T01:31:59;8.77;;;4.63;;
12925;SDS011;6529;50.566;9.774;2022-12-17T01:34:43;8.67;;;4.97;;
12925;SDS011;6529;50.566;9.774;2022-12-17T01:37:27;9.63;;;4.97;;
12925;SDS011;6529;50.566;9.774;2022-12-17T01:40:11;8.43;;;4.50;;
12925;SDS011;6529;50.566;9.774;2022-12-17T01:42:55;8.23;;;4.43;;
12925;SDS011;6529;50.566;9.774;2022-12-17T01:45:40;8.07;;;4.60;;
12925;SDS011;6529;50.566;9.774;2022-12-17T01:48:29;9.63;;;5.17;;
12925;SDS011;6529;50.566;9.774;2022-12-17T01:51:21;8.27;;;4.83;;
12925;SDS011;6529;50.566;9.774;2022-12-17T01:54:07;7.43;;;4.60;;
12925;SDS011;6529;50.566;9.774;2022-12-17T01:56:51;9.20;;;5.30;;
12925;SDS011;6529;50.566;9.774;2022-12-17T01:59:54;9.03;;;5.13;;
12925;SDS011;6529;50.566;9.774;2022-12-17T02:02:42;8.07;;;5.00;;
12925;SDS011;6529;50.566;9.774;2022-12-17T02:05:30;10.57;;;5.43;;
12925;SDS011;6529;50.566;9.774;2022-12-17T02:11:25;12.13;;;5.97;;
12925;SDS011;6529;50.566;9.774;2022-12-17T02:14:56;10.80;;;5.77;;
12925;SDS011;6529;50.566;9.774;2022-12-17T02:17:54;9.80;;;5.23;;
12925;SDS011;6529;50.566;9.774;2022-12-17T02:20:48;8.90;;;5.17;;
12925;SDS011;6529;50.566;9.774;2022-12-17T02:23:40;12.40;;;5.70;;
12925;SDS011;6529;50.566;9.774;2022-12-17T02:29:25;10.80;;;6.07;;
12925;SDS011;6529;50.566;9.774;2022-12-17T02:32:13;8.67;;;5.30;;
12925;SDS011;6529;50.566;9.774;2022-12-17T02:34:59;11.30;;;5.67;;
12925;SDS011;6529;50.566;9.774;2022-12-17T02:37:48;10.40;;;5.50;;
12925;SDS011;6529;50.566;9.774;2022-12-17T02:40:33;9.43;;;5.80;;
12925;SDS011;6529;50.566;9.774;2022-12-17T02:43:20;9.33;;;5.63;;
12925;SDS011;6529;50.566;9.774;2022-12-17T02:46:05;11.27;;;6.10;;
12925;SDS011;6529;50.566;9.774;2022-12-17T02:48:50;11.20;;;6.20;;
12925;SDS011;6529;50.566;9.774;2022-12-17T02:51:34;11.20;;;5.93;;
12925;SDS011;6529;50.566;9.774;2022-12-17T02:54:19;11.67;;;5.90;;
12925;SDS011;6529;50.566;9.774;2022-12-17T02:57:03;9.33;;;5.47;;
12925;SDS011;6529;50.566;9.774;2022-12-17T02:59:47;10.53;;;5.87;;
12925;SDS011;6529;50.566;9.774;2022-12-17T03:02:31;12.03;;;5.93;;
12925;SDS011;6529;50.566;9.774;2022-12-17T03:05:15;8.90;;;5.37;;
12925;SDS011;6529;50.566;9.774;2022-12-17T03:07:59;9.07;;;5.30;;
12925;SDS011;6529;50.566;9.774;2022-12-17T03:10:43;11.97;;;6.50;;
12925;SDS011;6529;50.566;9.774;2022-12-17T03:13:27;10.30;;;5.27;;
12925;SDS011;6529;50.566;9.774;2022-12-17T03:16:13;11.73;;;5.30;;
12925;SDS011;6529;50.566;9.774;2022-12-17T03:18:58;10.07;;;5.50;;
12925;SDS011;6529;50.566;9.774;2022-12-17T03:21:42;13.03;;;6.37;;
12925;SDS011;6529;50.566;9.774;2022-12-17T03:24:26;9.90;;;5.67;;
12925;SDS011;6529;50.566;9.774;2022-12-17T03:27:11;10.10;;;5.87;;
12925;SDS011;6529;50.566;9.774;2022-12-17T03:29:55;11.43;;;5.37;;
12925;SDS011;6529;50.566;9.774;2022-12-17T03:32:40;10.27;;;5.37;;
12925;SDS011;6529;50.566;9.774;2022-12-17T03:35:37;9.43;;;5.40;;
12925;SDS011;6529;50.566;9.774;2022-12-17T03:38:22;9.50;;;4.70;;
12925;SDS011;6529;50.566;9.774;2022-12-17T03:41:06;16.43;;;5.40;;
12925;SDS011;6529;50.566;9.774;2022-12-17T03:43:50;13.40;;;6.27;;
12925;SDS011;6529;50.566;9.774;2022-12-17T03:46:34;9.10;;;5.43;;
12925;SDS011;6529;50.566;9.774;2022-12-17T03:49:18;10.40;;;5.47;;
12925;SDS011;6529;50.566;9.774;2022-12-17T03:52:02;12.77;;;5.80;;
12925;SDS011;6529;50.566;9.774;2022-12-17T03:54:46;9.97;;;5.47;;
12925;SDS011;6529;50.566;9.774;2022-12-17T03:57:30;11.97;;;5.97;;
12925;SDS011;6529;50.566;9.774;2022-12-17T04:00:14;10.53;;;5.37;;
12925;SDS011;6529;50.566;9.774;2022-12-17T04:02:58;12.00;;;5.93;;
12925;SDS011;6529;50.566;9.774;2022-12-17T04:05:42;12.73;;;6.07;;
12925;SDS011;6529;50.566;9.774;2022-12-17T04:08:26;10.17;;;4.67;;
12925;SDS011;6529;50.566;9.774;2022-12-17T04:11:10;12.40;;;5.90;;
12925;SDS011;6529;50.566;9.774;2022-12-17T04:13:54;13.13;;;6.10;;
12925;SDS011;6529;50.566;9.774;2022-12-17T04:16:38;11.47;;;5.30;;
12925;SDS011;6529;50.566;9.774;2022-12-17T04:19:22;11.17;;;5.53;;
12925;SDS011;6529;50.566;9.774;2022-12-17T04:22:06;9.63;;;4.90;;
12925;SDS011;6529;50.566;9.774;2022-12-17T04:24:50;9.73;;;5.00;;
12925;SDS011;6529;50.566;9.774;2022-12-17T04:27:34;12.73;;;6.67;;
12925;SDS011;6529;50.566;9.774;2022-12-17T04:30:18;8.07;;;4.93;;
12925;SDS011;6529;50.566;9.774;2022-12-17T04:33:02;9.70;;;5.27;;
12925;SDS011;6529;50.566;9.774;2022-12-17T04:35:46;11.23;;;5.90;;
12925;SDS011;6529;50.566;9.774;2022-12-17T04:38:31;7.63;;;4.93;;
12925;SDS011;6529;50.566;9.774;2022-12-17T04:41:14;9.50;;;5.07;;
12925;SDS011;6529;50.566;9.774;2022-12-17T04:43:59;9.87;;;4.80;;
12925;SDS011;6529;50.566;9.774;2022-12-17T04:46:43;10.40;;;4.77;;
12925;SDS011;6529;50.566;9.774;2022-12-17T04:49:27;8.60;;;5.00;;
12925;SDS011;6529;50.566;9.774;2022-12-17T04:52:11;11.00;;;5.13;;
12925;SDS011;6529;50.566;9.774;2022-12-17T04:54:55;9.57;;;5.20;;
12925;SDS011;6529;50.566;9.774;2022-12-17T04:57:39;10.67;;;5.07;;
12925;SDS011;6529;50.566;9.774;2022-12-17T05:00:23;8.03;;;4.27;;
12925;SDS011;6529;50.566;9.774;2022-12-17T05:03:11;9.60;;;4.30;;
12925;SDS011;6529;50.566;9.774;2022-12-17T05:05:57;7.53;;;4.13;;
12925;SDS011;6529;50.566;9.774;2022-12-17T05:08:42;8.87;;;4.97;;
12925;SDS011;6529;50.566;9.774;2022-12-17T05:11:26;7.27;;;4.50;;
12925;SDS011;6529;50.566;9.774;2022-12-17T05:14:10;8.03;;;4.37;;
12925;SDS011;6529;50.566;9.774;2022-12-17T05:17:14;8.90;;;4.87;;
12925;SDS011;6529;50.566;9.774;2022-12-17T05:19:58;9.63;;;4.63;;
12925;SDS011;6529;50.566;9.774;2022-12-17T05:22:42;8.70;;;4.77;;
12925;SDS011;6529;50.566;9.774;2022-12-17T05:25:26;8.80;;;4.87;;
12925;SDS011;6529;50.566;9.774;2022-12-17T05:28:10;9.97;;;4.33;;
12925;SDS011;6529;50.566;9.774;2022-12-17T05:30:54;9.73;;;4.80;;
12925;SDS011;6529;50.566;9.774;2022-12-17T05:33:39;8.47;;;4.67;;
12925;SDS011;6529;50.566;9.774;2022-12-17T05:36:24;7.27;;;4.27;;
12925;SDS011;6529;50.566;9.774;2022-12-17T05:39:08;8.50;;;4.27;;
12925;SDS011;6529;50.566;9.774;2022-12-17T05:41:53;10.50;;;4.40;;
12925;SDS011;6529;50.566;9.774;2022-12-17T05:44:37;11.20;;;4.97;;
12925;SDS011;6529;50.566;9.774;2022-12-17T05:47:21;17.10;;;5.00;;
12925;SDS011;6529;50.566;9.774;2022-12-17T05:50:05;13.97;;;5.10;;
12925;SDS011;6529;50.566;9.774;2022-12-17T05:52:49;9.47;;;4.60;;
12925;SDS011;6529;50.566;9.774;2022-12-17T05:55:33;8.97;;;4.80;;
12925;SDS011;6529;50.566;9.774;2022-12-17T05:58:17;10.73;;;5.50;;
12925;SDS011;6529;50.566;9.774;2022-12-17T06:01:02;10.43;;;5.10;;
12925;SDS011;6529;50.566;9.774;2022-12-17T06:03:47;9.53;;;4.83;;
12925;SDS011;6529;50.566;9.774;2022-12-17T06:06:32;10.47;;;5.20;;
12925;SDS011;6529;50.566;9.774;2022-12-17T06:09:16;8.53;;;4.80;;
12925;SDS011;6529;50.566;9.774;2022-12-17T06:12:00;12.60;;;5.27;;
12925;SDS011;6529;50.566;9.774;2022-12-17T06:14:44;11.63;;;5.47;;
12925;SDS011;6529;50.566;9.774;2022-12-17T06:17:28;14.97;;;8.30;;
12925;SDS011;6529;50.566;9.774;2022-12-17T06:20:12;19.80;;;10.47;;
12925;SDS011;6529;50.566;9.774;2022-12-17T06:25:44;9.80;;;4.80;;
12925;SDS011;6529;50.566;9.774;2022-12-17T06:28:28;8.40;;;4.93;;
12925;SDS011;6529;50.566;9.774;2022-12-17T06:31:12;10.47;;;5.23;;
12925;SDS011;6529;50.566;9.774;2022-12-17T06:33:56;8.37;;;4.20;;
12925;SDS011;6529;50.566;9.774;2022-12-17T06:36:41;8.03;;;5.03;;
12925;SDS011;6529;50.566;9.774;2022-12-17T06:39:24;9.73;;;4.97;;
12925;SDS011;6529;50.566;9.774;2022-12-17T06:42:08;10.43;;;4.80;;
12925;SDS011;6529;50.566;9.774;2022-12-17T06:44:53;10.90;;;5.30;;
12925;SDS011;6529;50.566;9.774;2022-12-17T06:47:37;12.77;;;5.70;;
12925;SDS011;6529;50.566;9.774;2022-12-17T06:50:21;18.17;;;5.40;;
12925;SDS011;6529;50.566;9.774;2022-12-17T06:53:05;20.90;;;4.97;;
12925;SDS011;6529;50.566;9.774;2022-12-17T06:55:50;17.20;;;5.30;;
12925;SDS011;6529;50.566;9.774;2022-12-17T06:58:45;11.17;;;4.90;;
12925;SDS011;6529;50.566;9.774;2022-12-17T07:01:30;13.37;;;4.60;;
12925;SDS011;6529;50.566;9.774;2022-12-17T07:04:14;19.67;;;5.17;;
12925;SDS011;6529;50.566;9.774;2022-12-17T07:06:58;15.53;;;4.63;;
12925;SDS011;6529;50.566;9.774;2022-12-17T07:09:42;14.37;;;5.07;;
12925;SDS011;6529;50.566;9.774;2022-12-17T07:12:26;11.43;;;4.50;;
12925;SDS011;6529;50.566;9.774;2022-12-17T07:15:11;12.67;;;4.70;;
12925;SDS011;6529;50.566;9.774;2022-12-17T07:17:57;13.17;;;4.53;;
12925;SDS011;6529;50.566;9.774;2022-12-17T07:20:42;27.73;;;4.73;;
12925;SDS011;6529;50.566;9.774;2022-12-17T07:23:26;22.90;;;4.27;;
12925;SDS011;6529;50.566;9.774;2022-12-17T07:26:11;13.70;;;4.17;;
12925;SDS011;6529;50.566;9.774;2022-12-17T07:28:55;12.43;;;4.07;;
12925;SDS011;6529;50.566;9.774;2022-12-17T07:31:39;13.13;;;4.30;;
12925;SDS011;6529;50.566;9.774;2022-12-17T07:34:23;11.30;;;4.27;;
12925;SDS011;6529;50.566;9.774;2022-12-17T07:37:07;10.13;;;4.97;;
12925;SDS011;6529;50.566;9.774;2022-12-17T07:39:51;10.70;;;5.90;;
12925;SDS011;6529;50.566;9.774;2022-12-17T07:42:37;10.00;;;4.70;;
12925;SDS011;6529;50.566;9.774;2022-12-17T07:45:21;11.50;;;5.30;;
12925;SDS011;6529;50.566;9.774;2022-12-17T07:48:05;9.77;;;4.77;;
12925;SDS011;6529;50.566;9.774;2022-12-17T07:50:49;8.23;;;4.10;;
12925;SDS011;6529;50.566;9.774;2022-12-17T07:53:33;11.57;;;4.47;;
12925;SDS011;6529;50.566;9.774;2022-12-17T07:56:18;8.87;;;4.60;;
12925;SDS011;6529;50.566;9.774;2022-12-17T07:59:02;8.43;;;6.10;;
12925;SDS011;6529;50.566;9.774;2022-12-17T08:01:47;8.27;;;4.37;;
12925;SDS011;6529;50.566;9.774;2022-12-17T08:04:32;9.87;;;4.77;;
12925;SDS011;6529;50.566;9.774;2022-12-17T08:07:16;8.83;;;4.37;;
12925;SDS011;6529;50.566;9.774;2022-12-17T08:10:00;8.47;;;4.83;;
12925;SDS011;6529;50.566;9.774;2022-12-17T08:12:57;8.57;;;4.60;;
12925;SDS011;6529;50.566;9.774;2022-12-17T08:15:43;8.07;;;4.30;;
12925;SDS011;6529;50.566;9.774;2022-12-17T08:18:28;9.97;;;4.80;;
12925;SDS011;6529;50.566;9.774;2022-12-17T08:21:12;9.47;;;4.73;;
12925;SDS011;6529;50.566;9.774;2022-12-17T08:23:56;9.73;;;5.00;;
12925;SDS011;6529;50.566;9.774;2022-12-17T08:26:40;8.47;;;4.70;;
12925;SDS011;6529;50.566;9.774;2022-12-17T08:29:24;10.97;;;5.43;;
12925;SDS011;6529;50.566;9.774;2022-12-17T08:32:09;8.90;;;4.40;;
12925;SDS011;6529;50.566;9.774;2022-12-17T08:34:52;9.57;;;5.00;;
12925;SDS011;6529;50.566;9.774;2022-12-17T08:37:37;10.67;;;5.60;;
12925;SDS011;6529;50.566;9.774;2022-12-17T08:40:21;8.27;;;4.17;;
12925;SDS011;6529;50.566;9.774;2022-12-17T08:43:05;7.37;;;4.30;;
12925;SDS011;6529;50.566;9.774;2022-12-17T08:45:50;7.20;;;3.37;;
12925;SDS011;6529;50.566;9.774;2022-12-17T08:48:35;15.37;;;4.33;;
12925;SDS011;6529;50.566;9.774;2022-12-17T08:51:19;13.20;;;4.20;;
12925;SDS011;6529;50.566;9.774;2022-12-17T08:54:04;5.37;;;3.17;;
12925;SDS011;6529;50.566;9.774;2022-12-17T08:57:03;12.67;;;3.87;;
12925;SDS011;6529;50.566;9.774;2022-12-17T08:59:47;10.17;;;4.30;;
12925;SDS011;6529;50.566;9.774;2022-12-17T09:02:31;15.50;;;4.10;;
12925;SDS011;6529;50.566;9.774;2022-12-17T09:05:15;5.80;;;3.47;;
12925;SDS011;6529;50.566;9.774;2022-12-17T09:08:00;7.43;;;3.67;;
12925;SDS011;6529;50.566;9.774;2022-12-17T09:10:49;9.67;;;3.90;;
12925;SDS011;6529;50.566;9.774;2022-12-17T09:13:33;7.77;;;3.80;;
12925;SDS011;6529;50.566;9.774;2022-12-17T09:16:18;5.83;;;3.67;;
12925;SDS011;6529;50.566;9.774;2022-12-17T09:19:03;6.83;;;4.03;;
12925;SDS011;6529;50.566;9.774;2022-12-17T09:21:47;6.07;;;3.77;;
12925;SDS011;6529;50.566;9.774;2022-12-17T09:24:31;10.40;;;4.20;;
12925;SDS011;6529;50.566;9.774;2022-12-17T09:27:15;10.13;;;5.00;;
12925;SDS011;6529;50.566;9.774;2022-12-17T09:29:59;13.47;;;6.23;;
12925;SDS011;6529;50.566;9.774;2022-12-17T09:32:43;20.33;;;5.70;;
12925;SDS011;6529;50.566;9.774;2022-12-17T09:35:27;10.87;;;5.70;;
12925;SDS011;6529;50.566;9.774;2022-12-17T09:38:12;13.13;;;6.77;;
12925;SDS011;6529;50.566;9.774;2022-12-17T09:40:57;15.57;;;6.50;;
12925;SDS011;6529;50.566;9.774;2022-12-17T09:43:52;18.43;;;6.63;;
12925;SDS011;6529;50.566;9.774;2022-12-17T09:46:57;15.17;;;6.50;;
12925;SDS011;6529;50.566;9.774;2022-12-17T09:49:43;12.27;;;6.30;;
12925;SDS011;6529;50.566;9.774;2022-12-17T09:52:28;15.53;;;6.10;;
12925;SDS011;6529;50.566;9.774;2022-12-17T09:55:21;15.53;;;5.77;;
12925;SDS011;6529;50.566;9.774;2022-12-17T09:58:17;14.83;;;7.17;;
12925;SDS011;6529;50.566;9.774;2022-12-17T10:01:03;11.67;;;6.13;;
12925;SDS011;6529;50.566;9.774;2022-12-17T10:03:48;10.30;;;5.17;;
12925;SDS011;6529;50.566;9.774;2022-12-17T10:06:33;15.00;;;7.40;;
12925;SDS011;6529;50.566;9.774;2022-12-17T10:09:19;13.07;;;5.90;;
12925;SDS011;6529;50.566;9.774;2022-12-17T10:12:13;16.13;;;9.67;;
12925;SDS011;6529;50.566;9.774;2022-12-17T10:14:59;18.70;;;9.83;;
12925;SDS011;6529;50.566;9.774;2022-12-17T10:17:43;15.93;;;6.33;;
12925;SDS011;6529;50.566;9.774;2022-12-17T10:20:30;14.23;;;7.20;;
12925;SDS011;6529;50.566;9.774;2022-12-17T10:23:30;15.03;;;7.03;;
12925;SDS011;6529;50.566;9.774;2022-12-17T10:26:16;20.47;;;10.90;;
12925;SDS011;6529;50.566;9.774;2022-12-17T10:29:04;15.30;;;6.37;;
12925;SDS011;6529;50.566;9.774;2022-12-17T10:31:53;16.83;;;8.20;;
12925;SDS011;6529;50.566;9.774;2022-12-17T10:34:40;13.07;;;6.20;;
12925;SDS011;6529;50.566;9.774;2022-12-17T10:37:28;11.60;;;5.90;;
12925;SDS011;6529;50.566;9.774;2022-12-17T10:40:19;11.20;;;6.23;;
12925;SDS011;6529;50.566;9.774;2022-12-17T10:43:21;15.57;;;7.27;;
12925;SDS011;6529;50.566;9.774;2022-12-17T10:46:22;10.73;;;5.80;;
12925;SDS011;6529;50.566;9.774;2022-12-17T10:49:21;12.20;;;6.00;;
12925;SDS011;6529;50.566;9.774;2022-12-17T10:55:17;9.60;;;5.40;;
12925;SDS011;6529;50.566;9.774;2022-12-17T10:58:13;9.40;;;5.37;;
12925;SDS011;6529;50.566;9.774;2022-12-17T11:01:01;11.23;;;6.10;;
12925;SDS011;6529;50.566;9.774;2022-12-17T11:03:50;13.50;;;7.23;;
12925;SDS011;6529;50.566;9.774;2022-12-17T11:06:37;18.30;;;8.40;;
12925;SDS011;6529;50.566;9.774;2022-12-17T11:09:30;15.90;;;7.53;;
12925;SDS011;6529;50.566;9.774;2022-12-17T11:12:15;19.93;;;8.20;;
12925;SDS011;6529;50.566;9.774;2022-12-17T11:15:05;19.83;;;8.73;;
12925;SDS011;6529;50.566;9.774;2022-12-17T11:18:14;19.67;;;9.23;;
12925;SDS011;6529;50.566;9.774;2022-12-17T11:21:22;19.97;;;8.80;;
12925;SDS011;6529;50.566;9.774;2022-12-17T11:24:16;19.70;;;11.27;;
12925;SDS011;6529;50.566;9.774;2022-12-17T11:27:16;16.40;;;9.03;;
12925;SDS011;6529;50.566;9.774;2022-12-17T11:30:11;20.20;;;11.43;;
12925;SDS011;6529;50.566;9.774;2022-12-17T11:38:57;9.30;;;6.30;;
12925;SDS011;6529;50.566;9.774;2022-12-17T11:47:58;12.67;;;7.20;;
12925;SDS011;6529;50.566;9.774;2022-12-17T11:50:56;12.20;;;7.53;;
12925;SDS011;6529;50.566;9.774;2022-12-17T11:54:10;9.53;;;6.33;;
12925;SDS011;6529;50.566;9.774;2022-12-17T12:05:52;16.13;;;10.13;;
12925;SDS011;6529;50.566;9.774;2022-12-17T12:21:36;15.07;;;9.23;;
12925;SDS011;6529;50.566;9.774;2022-12-17T12:24:19;21.20;;;11.97;;
12925;SDS011;6529;50.566;9.774;2022-12-17T12:31:03;18.63;;;10.50;;
12925;SDS011;6529;50.566;9.774;2022-12-17T12:33:52;17.30;;;9.73;;
12925;SDS011;6529;50.566;9.774;2022-12-17T12:36:41;12.37;;;8.13;;
12925;SDS011;6529;50.566;9.774;2022-12-17T12:39:30;16.60;;;9.67;;
12925;SDS011;6529;50.566;9.774;2022-12-17T12:43:09;18.23;;;10.20;;
12925;SDS011;6529;50.566;9.774;2022-12-17T12:45:44;17.53;;;11.87;;
12925;SDS011;6529;50.566;9.774;2022-12-17T12:48:41;18.67;;;12.30;;
12925;SDS011;6529;50.566;9.774;2022-12-17T12:51:42;17.77;;;10.50;;
12925;SDS011;6529;50.566;9.774;2022-12-17T12:57:40;17.83;;;11.00;;
12925;SDS011;6529;50.566;9.774;2022-12-17T13:00:53;15.10;;;8.30;;
12925;SDS011;6529;50.566;9.774;2022-12-17T13:12:20;14.80;;;8.10;;
12925;SDS011;6529;50.566;9.774;2022-12-17T13:17:37;15.50;;;8.40;;
12925;SDS011;6529;50.566;9.774;2022-12-17T13:20:27;12.73;;;8.40;;
12925;SDS011;6529;50.566;9.774;2022-12-17T13:23:16;13.50;;;8.20;;
12925;SDS011;6529;50.566;9.774;2022-12-17T13:25:40;13.20;;;8.77;;
12925;SDS011;6529;50.566;9.774;2022-12-17T13:28:26;14.97;;;8.87;;
12925;SDS011;6529;50.566;9.774;2022-12-17T13:31:00;14.63;;;9.17;;
12925;SDS011;6529;50.566;9.774;2022-12-17T13:33:32;15.00;;;8.40;;
12925;SDS011;6529;50.566;9.774;2022-12-17T13:41:17;15.70;;;8.70;;
12925;SDS011;6529;50.566;9.774;2022-12-17T13:43:54;13.00;;;7.83;;
12925;SDS011;6529;50.566;9.774;2022-12-17T13:48:56;12.43;;;8.30;;
12925;SDS011;6529;50.566;9.774;2022-12-17T13:51:26;11.60;;;7.47;;
12925;SDS011;6529;50.566;9.774;2022-12-17T13:53:54;12.67;;;7.67;;
12925;SDS011;6529;50.566;9.774;2022-12-17T13:56:22;13.43;;;7.67;;
12925;SDS011;6529;50.566;9.774;2022-12-17T13:58:56;13.63;;;7.80;;
12925;SDS011;6529;50.566;9.774;2022-12-17T14:01:23;13.97;;;8.20;;
12925;SDS011;6529;50.566;9.774;2022-12-17T14:03:56;12.63;;;8.20;;
12925;SDS011;6529;50.566;9.774;2022-12-17T14:06:23;13.73;;;8.00;;
12925;SDS011;6529;50.566;9.774;2022-12-17T14:08:52;12.27;;;7.60;;
12925;SDS011;6529;50.566;9.774;2022-12-17T14:11:20;14.60;;;8.00;;
12925;SDS011;6529;50.566;9.774;2022-12-17T14:14:17;11.57;;;7.50;;
12925;SDS011;6529;50.566;9.774;2022-12-17T14:16:57;12.77;;;7.93;;
12925;SDS011;6529;50.566;9.774;2022-12-17T14:19:23;13.23;;;7.40;;
12925;SDS011;6529;50.566;9.774;2022-12-17T14:21:50;10.83;;;6.97;;
12925;SDS011;6529;50.566;9.774;2022-12-17T14:24:17;12.37;;;7.63;;
12925;SDS011;6529;50.566;9.774;2022-12-17T14:26:48;10.97;;;6.70;;
12925;SDS011;6529;50.566;9.774;2022-12-17T14:29:20;12.20;;;7.03;;
12925;SDS011;6529;50.566;9.774;2022-12-17T14:31:54;11.43;;;6.47;;
12925;SDS011;6529;50.566;9.774;2022-12-17T14:34:22;11.63;;;6.83;;
12925;SDS011;6529;50.566;9.774;2022-12-17T14:36:55;11.67;;;6.70;;
12925;SDS011;6529;50.566;9.774;2022-12-17T14:41:53;11.93;;;6.63;;
12925;SDS011;6529;50.566;9.774;2022-12-17T14:44:49;12.23;;;6.57;;
12925;SDS011;6529;50.566;9.774;2022-12-17T14:52:22;9.90;;;6.00;;
12925;SDS011;6529;50.566;9.774;2022-12-17T14:54:52;8.47;;;5.80;;
12925;SDS011;6529;50.566;9.774;2022-12-17T14:57:19;8.77;;;5.50;;
12925;SDS011;6529;50.566;9.774;2022-12-17T14:59:45;9.00;;;5.57;;
12925;SDS011;6529;50.566;9.774;2022-12-17T15:02:18;9.73;;;5.43;;
12925;SDS011;6529;50.566;9.774;2022-12-17T15:04:47;8.00;;;5.10;;
12925;SDS011;6529;50.566;9.774;2022-12-17T15:07:16;8.77;;;5.03;;
12925;SDS011;6529;50.566;9.774;2022-12-17T15:09:49;7.13;;;5.00;;
12925;SDS011;6529;50.566;9.774;2022-12-17T15:12:16;6.23;;;4.43;;
12925;SDS011;6529;50.566;9.774;2022-12-17T15:14:42;8.33;;;4.87;;
12925;SDS011;6529;50.566;9.774;2022-12-17T15:17:08;8.23;;;4.77;;
12925;SDS011;6529;50.566;9.774;2022-12-17T15:19:33;7.70;;;5.07;;
12925;SDS011;6529;50.566;9.774;2022-12-17T15:21:59;8.70;;;4.97;;
12925;SDS011;6529;50.566;9.774;2022-12-17T15:24:24;7.30;;;4.87;;
12925;SDS011;6529;50.566;9.774;2022-12-17T15:26:51;8.03;;;4.70;;
12925;SDS011;6529;50.566;9.774;2022-12-17T15:29:16;6.93;;;4.80;;
12925;SDS011;6529;50.566;9.774;2022-12-17T15:31:42;8.07;;;4.57;;
12925;SDS011;6529;50.566;9.774;2022-12-17T15:34:07;6.90;;;4.73;;
12925;SDS011;6529;50.566;9.774;2022-12-17T15:36:35;7.27;;;4.60;;
12925;SDS011;6529;50.566;9.774;2022-12-17T15:39:00;7.93;;;4.43;;
12925;SDS011;6529;50.566;9.774;2022-12-17T15:41:26;8.77;;;4.13;;
12925;SDS011;6529;50.566;9.774;2022-12-17T15:44:10;7.87;;;4.67;;
12925;SDS011;6529;50.566;9.774;2022-12-17T15:46:37;7.43;;;4.13;;
12925;SDS011;6529;50.566;9.774;2022-12-17T15:49:03;6.00;;;3.97;;
12925;SDS011;6529;50.566;9.774;2022-12-17T15:51:29;6.33;;;4.53;;
12925;SDS011;6529;50.566;9.774;2022-12-17T15:53:54;8.47;;;4.57;;
12925;SDS011;6529;50.566;9.774;2022-12-17T15:56:21;8.37;;;4.43;;
12925;SDS011;6529;50.566;9.774;2022-12-17T15:58:48;7.63;;;4.27;;
12925;SDS011;6529;50.566;9.774;2022-12-17T16:01:14;6.03;;;4.07;;
12925;SDS011;6529;50.566;9.774;2022-12-17T16:03:40;6.27;;;4.07;;
12925;SDS011;6529;50.566;9.774;2022-12-17T16:06:06;8.17;;;4.70;;
12925;SDS011;6529;50.566;9.774;2022-12-17T16:08:31;7.27;;;4.83;;
12925;SDS011;6529;50.566;9.774;2022-12-17T16:10:57;8.40;;;4.93;;
12925;SDS011;6529;50.566;9.774;2022-12-17T16:13:23;10.17;;;5.30;;
12925;SDS011;6529;50.566;9.774;2022-12-17T16:15:57;7.10;;;4.70;;
12925;SDS011;6529;50.566;9.774;2022-12-17T16:18:24;8.20;;;5.03;;
12925;SDS011;6529;50.566;9.774;2022-12-17T16:20:50;7.40;;;4.83;;
12925;SDS011;6529;50.566;9.774;2022-12-17T16:23:15;6.67;;;4.77;;
12925;SDS011;6529;50.566;9.774;2022-12-17T16:25:41;7.93;;;4.47;;
12925;SDS011;6529;50.566;9.774;2022-12-17T16:28:07;7.57;;;4.80;;
12925;SDS011;6529;50.566;9.774;2022-12-17T16:30:33;11.00;;;6.17;;
12925;SDS011;6529;50.566;9.774;2022-12-17T16:32:58;8.53;;;5.30;;
12925;SDS011;6529;50.566;9.774;2022-12-17T16:35:24;11.23;;;5.83;;
12925;SDS011;6529;50.566;9.774;2022-12-17T16:37:52;13.33;;;6.80;;
12925;SDS011;6529;50.566;9.774;2022-12-17T16:40:18;14.77;;;6.60;;
12925;SDS011;6529;50.566;9.774;2022-12-17T16:42:44;14.90;;;6.80;;
12925;SDS011;6529;50.566;9.774;2022-12-17T16:45:09;13.77;;;7.27;;
12925;SDS011;6529;50.566;9.774;2022-12-17T16:47:35;14.80;;;6.60;;
12925;SDS011;6529;50.566;9.774;2022-12-17T16:50:01;12.30;;;6.63;;
12925;SDS011;6529;50.566;9.774;2022-12-17T16:52:26;12.80;;;6.37;;
12925;SDS011;6529;50.566;9.774;2022-12-17T16:54:52;11.53;;;6.80;;
12925;SDS011;6529;50.566;9.774;2022-12-17T16:57:17;10.33;;;6.27;;
12925;SDS011;6529;50.566;9.774;2022-12-17T16:59:43;11.83;;;6.20;;
12925;SDS011;6529;50.566;9.774;2022-12-17T17:02:12;9.73;;;6.17;;
12925;SDS011;6529;50.566;9.774;2022-12-17T17:04:39;9.30;;;5.60;;
12925;SDS011;6529;50.566;9.774;2022-12-17T17:07:05;10.07;;;5.37;;
12925;SDS011;6529;50.566;9.774;2022-12-17T17:09:31;12.20;;;5.80;;
12925;SDS011;6529;50.566;9.774;2022-12-17T17:11:56;11.20;;;6.57;;
12925;SDS011;6529;50.566;9.774;2022-12-17T17:14:23;10.97;;;5.23;;
12925;SDS011;6529;50.566;9.774;2022-12-17T17:16:49;7.77;;;5.40;;
12925;SDS011;6529;50.566;9.774;2022-12-17T17:19:16;10.70;;;5.53;;
12925;SDS011;6529;50.566;9.774;2022-12-17T17:21:51;11.33;;;6.27;;
12925;SDS011;6529;50.566;9.774;2022-12-17T17:24:18;11.03;;;6.03;;
12925;SDS011;6529;50.566;9.774;2022-12-17T17:26:45;14.50;;;6.77;;
12925;SDS011;6529;50.566;9.774;2022-12-17T17:29:11;11.43;;;6.80;;
12925;SDS011;6529;50.566;9.774;2022-12-17T17:31:37;11.30;;;5.13;;
12925;SDS011;6529;50.566;9.774;2022-12-17T17:34:09;8.43;;;4.93;;
12925;SDS011;6529;50.566;9.774;2022-12-17T17:36:37;8.33;;;5.07;;
12925;SDS011;6529;50.566;9.774;2022-12-17T17:39:04;7.77;;;4.97;;
12925;SDS011;6529;50.566;9.774;2022-12-17T17:41:30;7.40;;;4.97;;